Welcome!

Visit our other weather sites:

Template documentation
and downloads

And another site



There are no active watches, warnings or advisories

Select another period ( hide this area )

Units Period Custom range Directly to
Metric English Both
Daily Weekly Monthly Yearly
use both date-selectors for a custom range
previous Day
With this date

WeatherUnderground graphs for this period ( click here )


Daily Summary for Friday Dec 6 2019
Time Temp. ( °C ) Dew pt. ( °C ) Wind ( km/h ) from Gust ( km/h ) Pressure ( hPa ) Humid.( % ) Rainrate ( cm )
High0,7 -3,6 35,4 North ( 1040/1293 ) 45,1 1030,0 74 -
Average-1,2 -5,8 23,3 North #70/89 34,0 1029,3 71 -
Low-2,1 -6,7 11,3   19,3 1026,0 70 -
Daily Tabular details for Friday Dec 6 2019
Time Temp. ( °C ) Dew pt. ( °C ) Wind ( km/h ) from Gust ( km/h ) Pressure ( hPa ) Humid.( % ) Rainrate ( cm )
00:00 0,7 -3,6 32,2 North 43,5 1026,0 73 -
00:05 0,6 -3,7 29,0 North 45,1 1026,0 73 -
00:10 0,5 -3,9 35,4 North 45,1 1026,0 72 -
00:15 0,5 -3,8 29,0 North 43,5 1026,0 73 -
00:20 0,4 -3,9 27,4 North 40,2 1026,0 73 -
00:25 0,2 -4,1 32,2 North 43,5 1026,0 73 -
00:30 0,1 -4,2 29,0 North 41,8 1026,0 73 -
00:35 -0,1 -4,1 33,8 North 45,1 1026,3 74 -
00:40 -0,2 -4,4 33,8 North 45,1 1026,3 73 -
00:45 -0,3 -4,6 32,2 North 45,1 1026,3 73 -
00:50 -0,3 -4,4 33,8 North 45,1 1026,3 74 -
00:55 -0,4 -4,7 35,4 North 45,1 1026,3 73 -
01:00 -0,5 -4,7 32,2 North 41,8 1026,6 73 -
01:05 -0,6 -4,8 24,1 North 41,8 1026,6 73 -
01:10 -0,7 -4,9 32,2 North 38,6 1026,6 73 -
01:15 -0,8 -5,2 24,1 North 41,8 1026,6 72 -
01:20 -0,8 -5,0 27,4 North 40,2 1026,6 73 -
01:25 -0,8 -5,2 32,2 North 41,8 1026,6 72 -
01:30 -0,8 -5,3 32,2 North 40,2 1026,6 72 -
01:35 -0,9 -5,5 29,0 North 43,5 1027,0 71 -
01:40 -0,9 -5,6 25,7 North 40,2 1027,3 71 -
01:45 -0,9 -5,6 19,3 North 32,2 1027,3 71 -
01:50 -1,0 -5,6 19,3 North 32,2 1027,3 71 -
01:55 -1,1 -5,7 16,1 North 24,1 1027,3 71 -
02:00 -1,1 -5,7 14,5 North 24,1 1027,7 71 -
02:05 -1,1 -5,4 19,3 North 25,7 1027,7 72 -
02:10 -0,9 -5,2 22,5 North 32,2 1027,7 73 -
02:15 -1,0 -5,6 32,2 North 43,5 1028,0 71 -
02:20 -1,1 -5,7 32,2 North 41,8 1028,0 71 -
02:25 -1,2 -5,8 25,7 North 38,6 1028,0 71 -
02:30 -1,3 -5,9 22,5 North 37,0 1028,0 71 -
02:35 -1,3 -5,9 22,5 North 38,6 1028,0 71 -
02:40 -1,3 -5,9 22,5 North 37,0 1028,0 71 -
02:45 -1,3 -5,8 25,7 North 35,4 1028,0 71 -
02:50 -1,3 -5,7 22,5 North 32,2 1028,3 72 -
02:55 -1,4 -5,9 24,1 North 33,8 1028,3 71 -
03:00 -1,4 -5,9 19,3 North 32,2 1028,3 71 -
03:05 -1,5 -5,9 20,9 North 30,6 1028,3 72 -
03:10 -1,4 -5,8 19,3 North 32,2 1028,3 72 -
03:15 -1,4 -6,0 27,4 North 37,0 1028,3 71 -
03:20 -1,4 -5,9 20,9 North 32,2 1028,3 71 -
03:25 -1,4 -6,0 20,9 North 32,2 1028,3 71 -
03:30 -1,4 -5,9 25,7 North 37,0 1028,3 71 -
03:35 -1,3 -5,9 27,4 North 37,0 1028,3 71 -
03:40 -1,3 -6,1 25,7 North 35,4 1028,3 70 -
03:45 -1,3 -5,9 24,1 North 37,0 1028,3 71 -
03:50 -1,3 -6,1 29,0 NNE 43,5 1028,3 70 -
03:55 -1,3 -6,1 25,7 North 40,2 1028,3 70 -
04:00 -1,4 -6,2 22,5 North 38,6 1028,3 70 -
04:05 -1,4 -6,2 25,7 North 38,6 1028,3 70 -
04:10 -1,4 -6,2 20,9 North 32,2 1028,3 70 -
04:15 -1,3 -6,1 22,5 North 32,2 1028,3 70 -
04:20 -1,3 -5,9 24,1 North 33,8 1028,3 71 -
04:25 -1,4 -6,2 22,5 NNE 33,8 1028,7 70 -
04:30 -1,4 -6,2 25,7 North 35,4 1028,7 70 -
04:35 -1,4 -6,2 27,4 North 37,0 1028,7 70 -
04:40 -1,4 -6,2 25,7 North 35,4 1028,7 70 -
04:45 -1,4 -6,2 24,1 North 35,4 1028,7 70 -
04:50 -1,5 -6,3 20,9 NNE 32,2 1028,7 70 -
04:55 -1,6 -6,3 22,5 NNE 33,8 1028,7 70 -
05:00 -1,7 -6,4 29,0 NNE 35,4 1028,3 70 -
05:05 -1,7 -6,5 29,0 NNE 37,0 1028,3 70 -
05:10 -1,7 -6,4 25,7 NNE 33,8 1028,3 70 -
05:15 -1,7 -6,4 22,5 North 35,4 1028,7 70 -
05:20 -1,7 -6,2 24,1 NNE 35,4 1028,7 71 -
05:25 -1,7 -6,2 25,7 NNE 32,2 1028,7 71 -
05:30 -1,7 -6,2 16,1 NNE 32,2 1029,0 71 -
05:35 -1,7 -6,2 16,1 NNE 25,7 1029,0 71 -
05:40 -1,7 -6,2 14,5 NNE 19,3 1029,0 71 -
05:45 -1,8 -6,3 22,5 NNE 29,0 1029,0 71 -
05:50 -1,8 -6,6 24,1 NNE 32,2 1029,0 70 -
05:55 -1,9 -6,6 20,9 NNE 30,6 1029,0 70 -
06:00 -1,9 -6,5 20,9 NNE 33,8 1029,0 71 -
06:05 -1,9 -6,5 16,1 North 24,1 1029,3 71 -
06:10 -1,9 -6,5 19,3 North 25,7 1029,3 71 -
06:15 -1,9 -6,5 12,9 North 27,4 1029,3 71 -
06:20 -1,9 -6,5 14,5 North 22,5 1029,3 71 -
06:25 -1,9 -6,4 11,3 North 19,3 1029,3 71 -
06:30 -1,9 -6,4 16,1 NNE 22,5 1029,7 71 -
06:35 -1,9 -6,5 19,3 North 22,5 1029,7 71 -
06:40 -1,9 -6,5 14,5 North 22,5 1029,7 71 -
06:45 -1,9 -6,5 11,3 North 19,3 1029,7 71 -
06:50 -1,9 -6,5 16,1 North 20,9 1029,7 71 -
06:55 -1,9 -6,5 14,5 North 20,9 1030,0 71 -
07:00 -1,9 -6,5 16,1 North 22,5 1030,0 71 -
07:05 -2,0 -6,6 12,9 North 22,5 1030,0 71 -
07:10 -1,9 -6,5 12,9 North 24,1 1030,0 71 -
07:15 -2,1 -6,6 12,9 NNE 24,1 1030,0 71 -
07:20 -2,1 -6,7 14,5 NNE 20,9 1030,0 71 -
Daily Summary for Friday Dec 6 2019
Time Temp. ( °C ) Dew pt. ( °C ) Wind ( km/h ) from Gust ( km/h ) Pressure ( hPa ) Humid.( % ) Rainrate ( cm )
High0,7 -3,6 35,4 North ( 1040/1293 ) 45,1 1030,0 74 -
Average-1,2 -5,8 23,3 North #70/89 34,0 1029,3 71 -
Low-2,1 -6,7 11,3   19,3 1026,0 70 -
Daily Tabular details for Friday Dec 6 2019
Time Temp. ( °C ) Dew pt. ( °C ) Wind ( km/h ) from Gust ( km/h ) Pressure ( hPa ) Humid.( % ) Rainrate ( cm )
00:00 0,7 -3,6 32,2 North 43,5 1026,0 73 -
00:05 0,6 -3,7 29,0 North 45,1 1026,0 73 -
00:10 0,5 -3,9 35,4 North 45,1 1026,0 72 -
00:15 0,5 -3,8 29,0 North 43,5 1026,0 73 -
00:20 0,4 -3,9 27,4 North 40,2 1026,0 73 -
00:25 0,2 -4,1 32,2 North 43,5 1026,0 73 -
00:30 0,1 -4,2 29,0 North 41,8 1026,0 73 -
00:35 -0,1 -4,1 33,8 North 45,1 1026,3 74 -
00:40 -0,2 -4,4 33,8 North 45,1 1026,3 73 -
00:45 -0,3 -4,6 32,2 North 45,1 1026,3 73 -
00:50 -0,3 -4,4 33,8 North 45,1 1026,3 74 -
00:55 -0,4 -4,7 35,4 North 45,1 1026,3 73 -
01:00 -0,5 -4,7 32,2 North 41,8 1026,6 73 -
01:05 -0,6 -4,8 24,1 North 41,8 1026,6 73 -
01:10 -0,7 -4,9 32,2 North 38,6 1026,6 73 -
01:15 -0,8 -5,2 24,1 North 41,8 1026,6 72 -
01:20 -0,8 -5,0 27,4 North 40,2 1026,6 73 -
01:25 -0,8 -5,2 32,2 North 41,8 1026,6 72 -
01:30 -0,8 -5,3 32,2 North 40,2 1026,6 72 -
01:35 -0,9 -5,5 29,0 North 43,5 1027,0 71 -
01:40 -0,9 -5,6 25,7 North 40,2 1027,3 71 -
01:45 -0,9 -5,6 19,3 North 32,2 1027,3 71 -
01:50 -1,0 -5,6 19,3 North 32,2 1027,3 71 -
01:55 -1,1 -5,7 16,1 North 24,1 1027,3 71 -
02:00 -1,1 -5,7 14,5 North 24,1 1027,7 71 -
02:05 -1,1 -5,4 19,3 North 25,7 1027,7 72 -
02:10 -0,9 -5,2 22,5 North 32,2 1027,7 73 -
02:15 -1,0 -5,6 32,2 North 43,5 1028,0 71 -
02:20 -1,1 -5,7 32,2 North 41,8 1028,0 71 -
02:25 -1,2 -5,8 25,7 North 38,6 1028,0 71 -
02:30 -1,3 -5,9 22,5 North 37,0 1028,0 71 -
02:35 -1,3 -5,9 22,5 North 38,6 1028,0 71 -
02:40 -1,3 -5,9 22,5 North 37,0 1028,0 71 -
02:45 -1,3 -5,8 25,7 North 35,4 1028,0 71 -
02:50 -1,3 -5,7 22,5 North 32,2 1028,3 72 -
02:55 -1,4 -5,9 24,1 North 33,8 1028,3 71 -
03:00 -1,4 -5,9 19,3 North 32,2 1028,3 71 -
03:05 -1,5 -5,9 20,9 North 30,6 1028,3 72 -
03:10 -1,4 -5,8 19,3 North 32,2 1028,3 72 -
03:15 -1,4 -6,0 27,4 North 37,0 1028,3 71 -
03:20 -1,4 -5,9 20,9 North 32,2 1028,3 71 -
03:25 -1,4 -6,0 20,9 North 32,2 1028,3 71 -
03:30 -1,4 -5,9 25,7 North 37,0 1028,3 71 -
03:35 -1,3 -5,9 27,4 North 37,0 1028,3 71 -
03:40 -1,3 -6,1 25,7 North 35,4 1028,3 70 -
03:45 -1,3 -5,9 24,1 North 37,0 1028,3 71 -
03:50 -1,3 -6,1 29,0 NNE 43,5 1028,3 70 -
03:55 -1,3 -6,1 25,7 North 40,2 1028,3 70 -
04:00 -1,4 -6,2 22,5 North 38,6 1028,3 70 -
04:05 -1,4 -6,2 25,7 North 38,6 1028,3 70 -
04:10 -1,4 -6,2 20,9 North 32,2 1028,3 70 -
04:15 -1,3 -6,1 22,5 North 32,2 1028,3 70 -
04:20 -1,3 -5,9 24,1 North 33,8 1028,3 71 -
04:25 -1,4 -6,2 22,5 NNE 33,8 1028,7 70 -
04:30 -1,4 -6,2 25,7 North 35,4 1028,7 70 -
04:35 -1,4 -6,2 27,4 North 37,0 1028,7 70 -
04:40 -1,4 -6,2 25,7 North 35,4 1028,7 70 -
04:45 -1,4 -6,2 24,1 North 35,4 1028,7 70 -
04:50 -1,5 -6,3 20,9 NNE 32,2 1028,7 70 -
04:55 -1,6 -6,3 22,5 NNE 33,8 1028,7 70 -
05:00 -1,7 -6,4 29,0 NNE 35,4 1028,3 70 -
05:05 -1,7 -6,5 29,0 NNE 37,0 1028,3 70 -
05:10 -1,7 -6,4 25,7 NNE 33,8 1028,3 70 -
05:15 -1,7 -6,4 22,5 North 35,4 1028,7 70 -
05:20 -1,7 -6,2 24,1 NNE 35,4 1028,7 71 -
05:25 -1,7 -6,2 25,7 NNE 32,2 1028,7 71 -
05:30 -1,7 -6,2 16,1 NNE 32,2 1029,0 71 -
05:35 -1,7 -6,2 16,1 NNE 25,7 1029,0 71 -
05:40 -1,7 -6,2 14,5 NNE 19,3 1029,0 71 -
05:45 -1,8 -6,3 22,5 NNE 29,0 1029,0 71 -
05:50 -1,8 -6,6 24,1 NNE 32,2 1029,0 70 -
05:55 -1,9 -6,6 20,9 NNE 30,6 1029,0 70 -
06:00 -1,9 -6,5 20,9 NNE 33,8 1029,0 71 -
06:05 -1,9 -6,5 16,1 North 24,1 1029,3 71 -
06:10 -1,9 -6,5 19,3 North 25,7 1029,3 71 -
06:15 -1,9 -6,5 12,9 North 27,4 1029,3 71 -
06:20 -1,9 -6,5 14,5 North 22,5 1029,3 71 -
06:25 -1,9 -6,4 11,3 North 19,3 1029,3 71 -
06:30 -1,9 -6,4 16,1 NNE 22,5 1029,7 71 -
06:35 -1,9 -6,5 19,3 North 22,5 1029,7 71 -
06:40 -1,9 -6,5 14,5 North 22,5 1029,7 71 -
06:45 -1,9 -6,5 11,3 North 19,3 1029,7 71 -
06:50 -1,9 -6,5 16,1 North 20,9 1029,7 71 -
06:55 -1,9 -6,5 14,5 North 20,9 1030,0 71 -
07:00 -1,9 -6,5 16,1 North 22,5 1030,0 71 -
07:05 -2,0 -6,6 12,9 North 22,5 1030,0 71 -
07:10 -1,9 -6,5 12,9 North 24,1 1030,0 71 -
07:15 -2,1 -6,6 12,9 NNE 24,1 1030,0 71 -
07:20 -2,1 -6,7 14,5 NNE 20,9 1030,0 71 -

Download your copy of this data-set  here

Our weather-data as stored at Weather Underground. Script developed by Jim McMurry. Adapted for the template by Leuven-Template.eu